Time;durP1;ratioP1;P1;durP2;ratioP2;P2;SDS_P1;SDS_P2;PMS_P1;PMS_P2;Temp;Humidity;BMP_temperature;BMP_pressure;BME280_temperature;BME280_humidity;BME280_pressure;Samples;Min_cycle;Max_cycle;Signal;HPM_P1;HPM_P2
2022/03/25 00:01:16;;;;;;;110.95;58.55;;;3.30;99.90;;;;;;5053265;28;20447;-64
2022/03/25 00:03:42;;;;;;;111.50;57.40;;;3.30;99.90;;;;;;5055200;28;20051;-63
2022/03/25 00:06:09;;;;;;;106.13;54.97;;;3.30;99.90;;;;;;5054578;28;20137;-63
2022/03/25 00:08:35;;;;;;;104.75;55.30;;;3.30;99.90;;;;;;5054967;28;20052;-63
2022/03/25 00:11:01;;;;;;;97.00;52.50;;;3.30;99.90;;;;;;5087652;28;20047;-64
2022/03/25 00:13:26;;;;;;;97.80;51.50;;;3.30;99.90;;;;;;5042806;28;20414;-63
2022/03/25 00:15:52;;;;;;;95.35;47.45;;;3.20;99.90;;;;;;5067457;28;20049;-63
2022/03/25 00:18:18;;;;;;;58.90;35.60;;;3.20;99.90;;;;;;5067390;28;20525;-63
2022/03/25 00:20:45;;;;;;;64.72;39.47;;;3.20;99.90;;;;;;5050561;28;20443;-63
2022/03/25 00:23:11;;;;;;;64.60;40.53;;;3.10;99.90;;;;;;5034353;28;20575;-63
2022/03/25 00:25:37;;;;;;;66.38;40.47;;;3.10;99.90;;;;;;5033583;28;20046;-64
2022/03/25 00:28:03;;;;;;;69.30;41.03;;;3.00;99.90;;;;;;5034896;28;20048;-63
2022/03/25 00:30:30;;;;;;;69.80;41.40;;;3.00;99.90;;;;;;5034728;28;20041;-64
2022/03/25 00:32:55;;;;;;;60.42;37.72;;;3.00;99.90;;;;;;5050233;28;20037;-63
2022/03/25 00:35:21;;;;;;;65.28;37.95;;;2.90;99.90;;;;;;5031835;28;20557;-63
2022/03/25 00:37:47;;;;;;;150.82;44.63;;;2.90;99.90;;;;;;5032782;28;20133;-63
2022/03/25 00:40:13;;;;;;;59.78;35.60;;;2.90;99.90;;;;;;5034517;28;20069;-63
2022/03/25 00:42:40;;;;;;;87.60;35.60;;;2.80;99.90;;;;;;5066631;28;20041;-63
2022/03/25 00:45:07;;;;;;;517.20;66.22;;;2.70;99.90;;;;;;5033509;28;20478;-63
2022/03/25 00:47:33;;;;;;;86.90;41.25;;;2.60;99.90;;;;;;5049716;28;20046;-64
2022/03/25 00:49:59;;;;;;;855.65;108.78;;;2.50;99.90;;;;;;5034290;28;20597;-63
2022/03/25 00:52:26;;;;;;;144.32;40.72;;;2.40;99.90;;;;;;5033194;28;20136;-63
2022/03/25 00:54:51;;;;;;;54.05;33.30;;;2.30;99.90;;;;;;5032934;28;20081;-63
2022/03/25 00:57:17;;;;;;;140.23;43.42;;;2.30;99.90;;;;;;5049850;28;20080;-63
2022/03/25 00:59:43;;;;;;;149.10;45.30;;;2.30;99.90;;;;;;5049500;28;20553;-63
2022/03/25 01:02:09;;;;;;;77.78;33.15;;;2.20;99.90;;;;;;5032904;28;20095;-63
2022/03/25 01:04:35;;;;;;;31.60;22.30;;;2.20;99.90;;;;;;5032796;28;20140;-63
2022/03/25 01:07:02;;;;;;;44.00;29.65;;;2.20;99.90;;;;;;5031877;28;20111;-63
2022/03/25 01:09:27;;;;;;;40.10;26.70;;;2.20;99.90;;;;;;5016187;28;20541;-63
2022/03/25 01:11:54;;;;;;;53.95;33.47;;;2.20;99.90;;;;;;5032727;28;20124;-63
2022/03/25 01:14:20;;;;;;;54.65;33.10;;;2.20;99.90;;;;;;5052408;28;20072;-63
2022/03/25 01:16:46;;;;;;;45.85;30.50;;;2.20;99.90;;;;;;5086111;28;20044;-63
2022/03/25 01:19:12;;;;;;;68.72;33.97;;;2.20;99.90;;;;;;5052399;28;20040;-63
2022/03/25 01:21:38;;;;;;;54.70;32.63;;;2.10;99.90;;;;;;5086355;28;20041;-63
2022/03/25 01:24:04;;;;;;;121.80;38.28;;;2.10;99.90;;;;;;5053545;28;20122;-63
2022/03/25 01:26:31;;;;;;;55.08;33.25;;;2.10;99.90;;;;;;5058704;28;20041;-63
2022/03/25 01:28:57;;;;;;;64.50;33.50;;;2.20;99.90;;;;;;5052270;28;20044;-63
2022/03/25 01:31:23;;;;;;;51.63;32.25;;;2.20;99.90;;;;;;5085780;28;20043;-63
2022/03/25 01:33:49;;;;;;;209.05;38.92;;;2.20;99.90;;;;;;5085627;28;20045;-63
2022/03/25 01:36:15;;;;;;;55.53;31.17;;;2.20;99.90;;;;;;5066996;28;20033;-63
2022/03/25 01:38:44;;;;;;;82.28;33.30;;;2.20;99.90;;;;;;5053362;28;20045;-63
2022/03/25 01:41:10;;;;;;;391.33;52.38;;;2.20;99.90;;;;;;5086032;28;20045;-63
2022/03/25 01:43:36;;;;;;;377.90;50.00;;;2.10;99.90;;;;;;5053340;28;20124;-63
2022/03/25 01:46:02;;;;;;;397.73;50.17;;;2.10;99.90;;;;;;5052365;28;20123;-63
2022/03/25 01:48:28;;;;;;;392.70;51.72;;;2.10;99.90;;;;;;5051805;28;20388;-63
2022/03/25 01:50:54;;;;;;;501.92;62.95;;;2.10;99.90;;;;;;5068626;28;20098;-63
2022/03/25 01:53:23;;;;;;;644.60;77.25;;;2.10;99.90;;;;;;5051711;28;20044;-63
2022/03/25 01:55:49;;;;;;;366.88;48.97;;;2.10;99.90;;;;;;5051835;28;20512;-63
2022/03/25 01:58:15;;;;;;;423.83;49.35;;;2.00;99.90;;;;;;5051956;28;20045;-63
2022/03/25 02:00:40;;;;;;;619.72;75.75;;;2.00;99.90;;;;;;5085523;28;20584;-63
2022/03/25 02:03:06;;;;;;;500.60;66.82;;;2.00;99.90;;;;;;5068602;28;20079;-63
2022/03/25 02:05:32;;;;;;;523.38;67.30;;;1.90;99.90;;;;;;5050994;28;20041;-64
2022/03/25 02:07:58;;;;;;;342.17;56.13;;;1.90;99.90;;;;;;5053020;28;20029;-63
2022/03/25 02:10:24;;;;;;;435.13;63.03;;;1.80;99.90;;;;;;5053163;28;20576;-63
2022/03/25 02:12:50;;;;;;;607.17;80.97;;;1.80;99.90;;;;;;5046172;28;20536;-63
2022/03/25 02:15:17;;;;;;;259.67;47.55;;;1.80;99.90;;;;;;5031619;28;20120;-63
2022/03/25 02:17:42;;;;;;;233.35;48.40;;;1.80;99.90;;;;;;5032941;28;20041;-63
2022/03/25 02:20:10;;;;;;;385.55;61.10;;;1.80;99.90;;;;;;5033007;28;20034;-63
2022/03/25 02:22:40;;;;;;;927.55;121.65;;;1.80;99.90;;;;;;5031475;28;20044;-63
2022/03/25 02:25:09;;;;;;;391.40;61.90;;;1.80;99.90;;;;;;5032278;28;20060;-63
2022/03/25 02:27:38;;;;;;;376.15;57.67;;;1.70;99.90;;;;;;5064805;28;20059;-63
2022/03/25 02:30:08;;;;;;;655.67;89.07;;;1.70;99.90;;;;;;5031567;28;20049;-63
2022/03/25 02:32:34;;;;;;;623.17;83.23;;;1.70;99.90;;;;;;5031568;28;20128;-63
2022/03/25 02:35:00;;;;;;;964.58;126.53;;;1.60;99.90;;;;;;5031309;28;20080;-63
2022/03/25 02:37:26;;;;;;;428.38;60.10;;;1.60;99.90;;;;;;5029385;28;20073;-63
2022/03/25 02:39:53;;;;;;;811.33;106.05;;;1.50;99.90;;;;;;5048014;28;20103;-63
2022/03/25 02:42:19;;;;;;;820.75;104.55;;;1.40;99.90;;;;;;5031529;28;20034;-63
2022/03/25 02:44:45;;;;;;;784.90;105.57;;;1.40;99.90;;;;;;5031185;28;20067;-63
2022/03/25 02:47:11;;;;;;;213.40;40.65;;;1.40;99.90;;;;;;5031595;28;20092;-63
2022/03/25 02:49:37;;;;;;;735.20;95.25;;;1.30;99.90;;;;;;5032414;28;20076;-63
2022/03/25 02:52:03;;;;;;;623.63;82.78;;;1.30;99.90;;;;;;5032756;28;20049;-63
2022/03/25 02:54:29;;;;;;;758.42;98.30;;;1.30;99.90;;;;;;5031348;28;20050;-63
2022/03/25 02:56:55;;;;;;;602.13;78.43;;;1.30;99.90;;;;;;5032591;28;20041;-63
2022/03/25 02:59:20;;;;;;;607.17;78.50;;;1.30;99.90;;;;;;5064568;28;20038;-63
2022/03/25 03:01:46;;;;;;;729.55;95.70;;;1.30;99.90;;;;;;5032422;28;20472;-64
2022/03/25 03:04:12;;;;;;;639.90;82.45;;;1.30;99.90;;;;;;5047756;28;20046;-63
2022/03/25 03:06:38;;;;;;;750.80;93.75;;;1.30;99.90;;;;;;5028963;28;20056;-63
2022/03/25 03:09:04;;;;;;;774.05;99.13;;;1.30;99.90;;;;;;5064605;28;20124;-63
2022/03/25 03:11:30;;;;;;;742.33;100.00;;;1.20;99.90;;;;;;5031343;28;20171;-63
2022/03/25 03:13:56;;;;;;;1056.88;126.00;;;1.20;99.90;;;;;;5048445;28;20045;-63
2022/03/25 03:16:23;;;;;;;934.58;116.22;;;1.20;99.90;;;;;;5050993;28;20124;-63
2022/03/25 03:18:49;;;;;;;1012.55;129.57;;;1.30;99.90;;;;;;5084736;28;20146;-63
2022/03/25 03:21:15;;;;;;;966.05;123.30;;;1.30;99.90;;;;;;5084830;28;20503;-63
2022/03/25 03:23:41;;;;;;;874.97;115.50;;;1.30;99.90;;;;;;5084674;28;20469;-63
2022/03/25 03:26:07;;;;;;;727.95;101.63;;;1.30;99.90;;;;;;5084670;28;20045;-63
2022/03/25 03:28:32;;;;;;;912.83;129.52;;;1.40;99.90;;;;;;5052103;28;20393;-63
2022/03/25 03:30:58;;;;;;;782.45;113.20;;;1.40;99.90;;;;;;5052380;28;20049;-63
2022/03/25 03:33:24;;;;;;;1203.65;156.93;;;1.50;99.90;;;;;;5050882;28;20483;-63
2022/03/25 03:35:50;;;;;;;976.38;132.25;;;1.60;99.90;;;;;;5083219;28;20053;-63
2022/03/25 03:38:16;;;;;;;708.47;104.63;;;1.60;99.90;;;;;;5054465;28;20086;-63
2022/03/25 03:40:42;;;;;;;831.80;121.22;;;1.60;99.90;;;;;;5055527;28;20033;-63
2022/03/25 03:43:08;;;;;;;911.30;126.65;;;1.70;99.90;;;;;;5055519;28;20120;-63
2022/03/25 03:45:33;;;;;;;895.33;122.85;;;1.70;99.90;;;;;;5070889;28;20087;-63
2022/03/25 03:47:59;;;;;;;689.63;99.90;;;1.70;99.90;;;;;;5055414;28;20128;-63
2022/03/25 03:50:25;;;;;;;951.60;134.82;;;1.70;99.90;;;;;;5055533;28;20044;-63
2022/03/25 03:52:51;;;;;;;919.95;129.15;;;1.70;99.90;;;;;;5087693;28;20072;-63
2022/03/25 03:55:18;;;;;;;883.58;119.35;;;1.70;99.90;;;;;;5053882;28;20045;-63
2022/03/25 03:57:44;;;;;;;593.75;94.03;;;1.70;99.90;;;;;;5087757;28;20179;-63
2022/03/25 04:00:12;;;;;;;628.05;93.97;;;1.60;99.90;;;;;;5055416;28;20083;-63
2022/03/25 04:02:39;;;;;;;622.72;95.80;;;1.70;99.90;;;;;;5070532;28;20040;-63
2022/03/25 04:05:06;;;;;;;482.25;83.43;;;1.70;99.90;;;;;;5071036;28;20067;-63
2022/03/25 04:07:31;;;;;;;597.42;95.70;;;1.70;99.90;;;;;;5053041;28;20056;-63
2022/03/25 04:09:58;;;;;;;546.60;90.13;;;1.70;99.90;;;;;;5053594;28;20041;-63
2022/03/25 04:12:24;;;;;;;645.60;102.82;;;1.70;99.90;;;;;;5050090;28;20049;-63
2022/03/25 04:14:49;;;;;;;572.72;95.82;;;1.70;99.90;;;;;;5034747;28;20041;-63
2022/03/25 04:17:16;;;;;;;508.65;90.13;;;1.70;99.90;;;;;;5050291;28;20041;-63
2022/03/25 04:19:42;;;;;;;275.08;57.10;;;1.70;99.90;;;;;;5033651;28;20486;-63
2022/03/25 04:22:08;;;;;;;503.10;88.80;;;1.60;99.90;;;;;;5033884;28;20050;-63
2022/03/25 04:24:33;;;;;;;503.52;87.40;;;1.60;99.90;;;;;;5033419;28;20504;-63
2022/03/25 04:26:59;;;;;;;314.65;61.03;;;1.60;99.90;;;;;;5034724;28;20480;-63
2022/03/25 04:29:25;;;;;;;448.70;82.97;;;1.50;99.90;;;;;;5033519;28;20501;-63
2022/03/25 04:31:51;;;;;;;479.23;83.90;;;1.50;99.90;;;;;;5034618;28;20045;-63
2022/03/25 04:34:17;;;;;;;441.98;75.88;;;1.50;99.90;;;;;;5050085;28;20037;-63
2022/03/25 04:36:43;;;;;;;399.92;68.32;;;1.50;99.90;;;;;;5031221;28;20041;-63
2022/03/25 04:39:09;;;;;;;478.27;76.32;;;1.50;99.90;;;;;;5030567;28;20509;-63
2022/03/25 04:41:35;;;;;;;463.83;78.35;;;1.50;99.90;;;;;;5034317;28;20045;-63
2022/03/25 04:44:01;;;;;;;400.58;70.75;;;1.50;99.90;;;;;;5033458;28;20505;-63
2022/03/25 04:46:27;;;;;;;373.00;69.22;;;1.50;99.90;;;;;;5033082;28;20038;-63
2022/03/25 04:48:52;;;;;;;412.67;74.53;;;1.40;99.90;;;;;;5049930;28;20048;-63
2022/03/25 04:51:18;;;;;;;561.97;86.57;;;1.40;99.90;;;;;;5033289;28;20133;-63
2022/03/25 04:53:44;;;;;;;437.75;76.93;;;1.40;99.90;;;;;;5033183;28;20167;-63
2022/03/25 04:56:10;;;;;;;378.00;70.05;;;1.40;99.90;;;;;;5049771;28;20370;-63
2022/03/25 04:58:36;;;;;;;358.13;66.55;;;1.40;99.90;;;;;;5032896;28;20045;-63
2022/03/25 05:01:02;;;;;;;259.73;51.63;;;1.30;99.90;;;;;;5033060;28;20087;-63
2022/03/25 05:03:28;;;;;;;490.52;84.82;;;1.30;99.90;;;;;;5034227;28;20439;-63
2022/03/25 05:05:54;;;;;;;270.50;49.72;;;1.40;99.90;;;;;;5030597;28;20076;-63
2022/03/25 05:08:21;;;;;;;365.23;60.10;;;1.40;99.90;;;;;;5048561;28;20489;-63
2022/03/25 05:10:46;;;;;;;334.02;60.15;;;1.30;99.90;;;;;;5032923;28;20033;-63
2022/03/25 05:13:12;;;;;;;636.45;94.82;;;1.30;99.90;;;;;;5076401;28;20033;-63
2022/03/25 05:15:38;;;;;;;370.67;60.85;;;1.40;99.90;;;;;;5053037;28;20041;-63
2022/03/25 05:18:04;;;;;;;571.90;91.32;;;1.40;99.90;;;;;;5053077;28;20255;-63
2022/03/25 05:20:31;;;;;;;326.85;59.50;;;1.40;99.90;;;;;;5085011;28;20480;-63
2022/03/25 05:22:56;;;;;;;227.90;48.10;;;1.40;99.90;;;;;;5085132;28;20099;-63
2022/03/25 05:25:22;;;;;;;310.20;55.60;;;1.40;99.90;;;;;;5084863;28;20417;-63
2022/03/25 05:28:00;;;;;;;481.77;77.53;;;1.40;99.90;;;;;;5052883;28;20147;-63
2022/03/25 05:30:28;;;;;;;655.67;102.45;;;1.40;99.90;;;;;;5067971;28;20052;-63
2022/03/25 05:32:55;;;;;;;711.35;104.25;;;1.30;99.90;;;;;;5051572;28;20099;-63
2022/03/25 05:35:23;;;;;;;616.38;88.97;;;1.30;99.90;;;;;;5051093;28;20045;-63
2022/03/25 05:37:49;;;;;;;606.92;93.18;;;1.30;99.90;;;;;;5032938;28;20040;-63
2022/03/25 05:40:16;;;;;;;461.88;75.10;;;1.30;99.90;;;;;;5051394;28;20044;-63
2022/03/25 05:42:42;;;;;;;680.50;101.07;;;1.30;99.90;;;;;;5051153;28;20036;-63
2022/03/25 05:45:09;;;;;;;670.30;95.80;;;1.30;99.90;;;;;;5052351;28;20045;-63
2022/03/25 05:47:37;;;;;;;553.30;81.03;;;1.30;99.90;;;;;;5084841;28;20055;-63
2022/03/25 05:50:04;;;;;;;675.35;97.10;;;1.30;99.90;;;;;;5051286;28;20045;-63
2022/03/25 05:52:30;;;;;;;653.97;99.13;;;1.30;99.90;;;;;;5053480;28;20056;-63
2022/03/25 05:54:56;;;;;;;555.55;80.82;;;1.30;99.90;;;;;;5084491;28;20045;-63
2022/03/25 05:57:22;;;;;;;547.92;86.47;;;1.30;99.90;;;;;;5084419;28;20041;-63
2022/03/25 05:59:48;;;;;;;720.67;107.25;;;1.30;99.90;;;;;;5084114;28;20087;-63
2022/03/25 06:02:14;;;;;;;277.33;53.80;;;1.20;99.90;;;;;;5052081;28;20102;-63
2022/03/25 06:04:41;;;;;;;777.30;112.30;;;1.20;99.90;;;;;;5084616;28;20041;-63
2022/03/25 06:07:07;;;;;;;674.55;105.35;;;1.30;99.90;;;;;;5049557;28;20041;-63
2022/03/25 06:09:33;;;;;;;366.35;69.40;;;1.30;99.90;;;;;;5052182;28;20048;-63
2022/03/25 06:11:59;;;;;;;368.00;64.80;;;1.30;99.90;;;;;;5050842;28;20091;-63
2022/03/25 06:14:26;;;;;;;195.82;43.45;;;1.30;99.90;;;;;;5050823;28;20448;-63
2022/03/25 06:16:52;;;;;;;172.40;41.95;;;1.40;99.90;;;;;;5050973;28;20056;-63
2022/03/25 06:19:18;;;;;;;396.75;67.80;;;1.40;99.90;;;;;;5051813;28;20040;-63
2022/03/25 06:21:44;;;;;;;368.05;60.75;;;1.50;99.90;;;;;;5050734;28;20041;-63
2022/03/25 06:24:10;;;;;;;281.88;48.58;;;1.50;99.90;;;;;;5050424;28;20592;-63
2022/03/25 06:26:36;;;;;;;352.42;59.10;;;1.50;99.90;;;;;;5051777;28;20183;-63
2022/03/25 06:29:03;;;;;;;354.38;62.97;;;1.60;99.90;;;;;;5050770;28;20045;-64
2022/03/25 06:31:29;;;;;;;410.23;68.65;;;1.60;99.90;;;;;;5050719;28;20048;-63
2022/03/25 06:33:55;;;;;;;407.15;64.57;;;1.60;99.90;;;;;;5050301;28;20404;-63
2022/03/25 06:36:20;;;;;;;310.10;49.45;;;1.70;99.90;;;;;;5049182;28;20037;-63
2022/03/25 06:38:46;;;;;;;349.08;57.60;;;1.80;99.90;;;;;;5050672;28;20430;-64
2022/03/25 06:41:12;;;;;;;140.65;32.38;;;1.80;99.90;;;;;;5051662;28;20479;-63
2022/03/25 06:43:38;;;;;;;199.07;47.05;;;1.90;99.90;;;;;;5050508;28;20041;-63
2022/03/25 06:46:05;;;;;;;88.75;34.53;;;2.10;99.90;;;;;;5050292;28;20045;-63
2022/03/25 06:48:32;;;;;;;163.48;36.67;;;2.20;99.90;;;;;;5051682;28;20044;-63
2022/03/25 06:51:04;;;;;;;65.43;27.33;;;2.40;99.90;;;;;;5050294;28;20098;-64
2022/03/25 06:53:30;;;;;;;47.60;25.73;;;2.60;99.90;;;;;;5051858;28;20045;-63
2022/03/25 06:55:56;;;;;;;34.47;24.08;;;2.80;99.90;;;;;;5047809;28;20033;-64
2022/03/25 06:58:22;;;;;;;41.95;25.45;;;3.10;99.90;;;;;;5051915;28;20048;-64
2022/03/25 07:00:49;;;;;;;48.63;24.80;;;3.30;99.90;;;;;;5051508;28;20120;-63
2022/03/25 07:03:15;;;;;;;32.47;22.85;;;3.50;99.90;;;;;;5050140;28;20037;-63
2022/03/25 07:05:41;;;;;;;36.25;24.15;;;3.60;99.90;;;;;;5047822;28;20041;-64
2022/03/25 07:08:09;;;;;;;39.45;25.35;;;3.60;99.90;;;;;;5050542;28;20063;-63
2022/03/25 07:10:35;;;;;;;38.65;25.08;;;3.70;99.90;;;;;;5053730;28;20083;-64
2022/03/25 07:13:01;;;;;;;45.13;29.55;;;3.70;99.90;;;;;;5053980;28;20116;-63
2022/03/25 07:15:27;;;;;;;45.35;28.77;;;3.90;99.90;;;;;;5054139;28;20711;-63
2022/03/25 07:17:53;;;;;;;46.50;29.63;;;4.10;99.90;;;;;;5055046;28;20527;-64
2022/03/25 07:20:22;;;;;;;50.35;30.02;;;4.20;99.90;;;;;;5054805;28;20120;-63
2022/03/25 07:22:50;;;;;;;48.17;31.65;;;4.30;99.90;;;;;;5051321;28;20041;-63
2022/03/25 07:25:17;;;;;;;49.92;31.65;;;4.30;99.90;;;;;;5054137;28;20061;-63
2022/03/25 07:27:44;;;;;;;44.22;28.77;;;4.40;99.90;;;;;;5037698;28;20056;-63
2022/03/25 07:30:11;;;;;;;44.58;29.98;;;4.60;99.90;;;;;;5054481;28;20064;-64
2022/03/25 07:32:37;;;;;;;44.72;30.65;;;4.70;99.90;;;;;;5055360;28;20492;-64
2022/03/25 07:35:03;;;;;;;53.15;32.65;;;4.90;99.90;;;;;;5054033;28;20045;-64
2022/03/25 07:37:29;;;;;;;53.60;33.17;;;5.10;99.90;;;;;;5053388;28;20483;-63
2022/03/25 07:39:55;;;;;;;50.75;33.20;;;5.40;99.90;;;;;;5054416;28;20163;-64
2022/03/25 07:42:21;;;;;;;51.90;32.03;;;5.70;99.90;;;;;;5054274;28;20051;-63
2022/03/25 07:44:47;;;;;;;51.22;32.17;;;6.00;99.90;;;;;;5054754;28;20052;-63
2022/03/25 07:47:14;;;;;;;48.50;32.13;;;6.30;99.90;;;;;;5055368;28;20529;-63
2022/03/25 07:49:40;;;;;;;56.47;35.92;;;6.50;99.90;;;;;;5054408;28;20401;-63
2022/03/25 07:52:10;;;;;;;55.58;34.10;;;6.90;99.90;;;;;;5054149;28;20584;-63
2022/03/25 07:54:36;;;;;;;45.83;30.00;;;7.10;99.90;;;;;;5054002;28;20049;-64
2022/03/25 07:57:02;;;;;;;47.35;30.52;;;7.40;99.90;;;;;;5037410;28;20052;-63
2022/03/25 07:59:29;;;;;;;43.28;28.02;;;7.70;99.90;;;;;;5054057;28;20079;-64
2022/03/25 08:01:55;;;;;;;44.53;29.30;;;8.00;99.90;;;;;;5053850;28;20052;-64
2022/03/25 08:04:24;;;;;;;44.33;29.77;;;8.30;99.90;;;;;;5055416;28;20044;-63
2022/03/25 08:06:53;;;;;;;50.00;30.40;;;8.50;99.90;;;;;;5049565;28;20044;-64
2022/03/25 08:09:20;;;;;;;47.17;28.38;;;8.90;99.90;;;;;;5053671;28;20037;-64
2022/03/25 08:11:46;;;;;;;42.13;26.80;;;9.20;99.90;;;;;;5053756;28;20075;-64
2022/03/25 08:14:13;;;;;;;39.55;25.65;;;9.60;99.90;;;;;;5053485;28;20393;-64
2022/03/25 08:16:39;;;;;;;36.72;25.70;;;10.00;99.90;;;;;;5053489;28;20037;-64
2022/03/25 08:19:08;;;;;;;37.40;24.13;;;10.50;99.90;;;;;;5054945;28;20052;-64
2022/03/25 08:21:34;;;;;;;35.15;23.88;;;10.80;99.90;;;;;;5054380;28;20041;-64
2022/03/25 08:29:28;;;;;;;36.67;24.15;;;12.40;99.90;;;;;;5033418;28;20060;-64
2022/03/25 08:31:55;;;;;;;35.92;23.92;;;12.80;99.90;;;;;;5033438;28;20049;-64
2022/03/25 08:34:21;;;;;;;35.05;24.48;;;13.10;99.90;;;;;;5066437;28;20048;-64
2022/03/25 08:36:48;;;;;;;32.47;23.50;;;13.30;99.90;;;;;;5032297;28;20037;-64
2022/03/25 08:39:15;;;;;;;31.85;23.65;;;13.70;99.90;;;;;;5034523;28;20048;-65
2022/03/25 08:41:41;;;;;;;33.47;23.05;;;14.00;99.90;;;;;;5034497;28;20562;-64
2022/03/25 08:44:09;;;;;;;34.70;23.98;;;14.30;99.90;;;;;;5016690;28;20052;-65
2022/03/25 08:46:35;;;;;;;30.58;22.75;;;14.60;99.90;;;;;;5030681;28;20038;-65
2022/03/25 08:49:02;;;;;;;35.00;23.80;;;14.90;99.90;;;;;;5066186;28;20084;-65
2022/03/25 08:51:28;;;;;;;32.03;21.38;;;15.20;99.90;;;;;;5034299;28;20570;-65
2022/03/25 08:53:54;;;;;;;31.27;22.60;;;15.60;99.90;;;;;;5066198;28;20121;-65
2022/03/25 08:56:21;;;;;;;32.40;21.98;;;16.10;99.90;;;;;;5033221;28;20098;-65
2022/03/25 08:58:47;;;;;;;30.02;20.48;;;16.40;99.90;;;;;;5034263;28;20041;-65
2022/03/25 09:01:13;;;;;;;29.83;22.45;;;16.40;99.90;;;;;;5037989;28;20040;-65
2022/03/25 09:03:39;;;;;;;37.20;21.83;;;16.70;99.90;;;;;;5054165;28;20499;-65
2022/03/25 09:06:05;;;;;;;25.15;19.80;;;17.00;99.90;;;;;;5051799;28;20068;-65
2022/03/25 09:08:31;;;;;;;28.33;19.75;;;17.40;99.00;;;;;;5052875;28;20040;-65
2022/03/25 09:10:57;;;;;;;26.27;18.80;;;17.60;95.70;;;;;;5053971;28;20425;-65
2022/03/25 09:13:23;;;;;;;24.52;19.10;;;17.90;94.70;;;;;;5035781;28;20052;-65
2022/03/25 09:15:50;;;;;;;23.48;18.70;;;18.00;91.90;;;;;;5052800;28;20051;-65
2022/03/25 09:18:15;;;;;;;27.20;19.80;;;18.10;89.40;;;;;;5052570;28;20114;-65
2022/03/25 09:20:41;;;;;;;28.88;19.83;;;18.10;86.30;;;;;;5052360;28;20497;-65
2022/03/25 09:23:08;;;;;;;27.08;21.23;;;18.40;85.50;;;;;;5052110;28;20037;-65
2022/03/25 09:25:35;;;;;;;25.02;19.38;;;18.80;83.50;;;;;;5049596;28;20132;-65
2022/03/25 09:28:01;;;;;;;26.25;19.90;;;19.10;80.60;;;;;;5053503;28;20103;-65
2022/03/25 09:30:27;;;;;;;28.17;19.88;;;19.30;78.90;;;;;;5052165;28;20490;-65
2022/03/25 09:32:53;;;;;;;26.90;19.73;;;19.40;75.00;;;;;;5052524;28;20055;-65
2022/03/25 09:35:21;;;;;;;31.05;21.88;;;19.20;73.30;;;;;;5052997;28;20041;-65
2022/03/25 09:37:49;;;;;;;30.23;21.80;;;19.20;72.90;;;;;;5051246;28;20076;-65
2022/03/25 09:40:21;;;;;;;29.58;22.30;;;19.20;72.80;;;;;;5052019;28;20083;-65
2022/03/25 09:42:50;;;;;;;26.95;20.42;;;19.20;71.50;;;;;;5053270;28;20530;-65
2022/03/25 09:45:17;;;;;;;27.67;21.73;;;19.40;68.50;;;;;;5035334;28;20043;-65
2022/03/25 09:47:44;;;;;;;27.92;21.70;;;19.50;66.70;;;;;;5051943;28;20118;-65
2022/03/25 09:50:13;;;;;;;31.55;21.30;;;19.60;66.40;;;;;;5053063;28;20040;-65
2022/03/25 09:52:42;;;;;;;29.42;23.40;;;19.70;66.40;;;;;;5053090;28;20468;-65
2022/03/25 09:55:09;;;;;;;28.77;22.48;;;20.10;65.60;;;;;;5053162;28;20045;-65
2022/03/25 09:57:36;;;;;;;27.85;22.35;;;20.40;64.50;;;;;;5053229;28;20401;-65
2022/03/25 10:00:04;;;;;;;29.25;21.00;;;20.60;63.10;;;;;;5052055;28;20041;-65
2022/03/25 10:02:30;;;;;;;31.30;24.20;;;20.90;62.30;;;;;;5051815;28;20045;-65
2022/03/25 10:04:56;;;;;;;36.22;24.85;;;21.00;61.40;;;;;;5052826;28;20048;-65
2022/03/25 10:07:33;;;;;;;32.40;23.98;;;21.20;60.60;;;;;;5051108;28;20048;-66
2022/03/25 10:10:13;;;;;;;29.83;23.70;;;21.50;58.90;;;;;;5051606;28;20059;-65
2022/03/25 10:12:43;;;;;;;28.15;21.92;;;21.70;54.90;;;;;;5053014;28;20131;-65
2022/03/25 10:15:13;;;;;;;;;;;21.80;53.50;;;;;;5052080;28;20045;-65
2022/03/25 10:17:46;;;;;;;29.75;21.15;;;22.00;53.70;;;;;;5085364;28;20297;-65
2022/03/25 10:20:12;;;;;;;27.30;19.92;;;22.00;54.70;;;;;;5052739;28;20052;-65
2022/03/25 10:22:38;;;;;;;24.85;18.85;;;22.00;53.90;;;;;;5051509;28;20041;-63
2022/03/25 10:25:09;;;;;;;25.58;19.40;;;22.10;51.90;;;;;;5084891;28;20051;-63
2022/03/25 10:27:35;;;;;;;27.10;19.40;;;22.40;53.60;;;;;;5053438;28;20084;-63
2022/03/25 10:30:05;;;;;;;26.15;20.02;;;22.40;52.20;;;;;;5051594;28;20057;-63
2022/03/25 10:32:31;;;;;;;;;;;22.50;52.00;;;;;;5053122;28;20041;-63
2022/03/25 10:35:11;;;;;;;23.80;16.75;;;22.70;52.50;;;;;;5052584;28;19920;-63
2022/03/25 10:37:38;;;;;;;25.30;17.05;;;22.70;48.70;;;;;;5055618;28;20381;-63
2022/03/25 10:40:08;;;;;;;21.92;16.15;;;22.90;49.30;;;;;;5053712;28;20037;-63
2022/03/25 10:42:34;;;;;;;;;;;23.10;49.80;;;;;;5067515;28;20041;-63
2022/03/25 10:45:00;;;;;;;22.23;15.93;;;23.30;48.70;;;;;;5052024;28;19917;-63
2022/03/25 10:47:28;;;;;;;21.35;16.33;;;23.40;48.40;;;;;;5054832;28;20102;-63
2022/03/25 10:49:57;;;;;;;22.60;16.63;;;23.40;45.20;;;;;;5087692;28;20112;-63
2022/03/25 10:52:24;;;;;;;24.38;16.65;;;23.20;44.90;;;;;;5071151;28;20037;-63
2022/03/25 10:54:51;;;;;;;25.80;18.33;;;23.10;46.70;;;;;;5055514;28;20513;-63
2022/03/25 10:57:17;;;;;;;24.92;17.70;;;23.20;47.20;;;;;;5054566;28;20388;-63
2022/03/25 10:59:57;;;;;;;22.52;16.95;;;23.40;48.10;;;;;;5055903;28;20029;-62
2022/03/25 11:02:24;;;;;;;25.50;18.58;;;23.60;46.00;;;;;;5055144;28;20068;-63
2022/03/25 11:04:51;;;;;;;24.75;18.65;;;23.60;43.40;;;;;;5056433;28;20044;-63
2022/03/25 11:07:18;;;;;;;26.58;20.42;;;23.60;45.40;;;;;;5086887;28;20109;-63
2022/03/25 11:09:44;;;;;;;24.08;18.13;;;23.80;45.90;;;;;;5088793;28;20096;-63
2022/03/25 11:12:11;;;;;;;24.95;17.65;;;24.00;45.30;;;;;;5055206;28;20041;-63
2022/03/25 11:14:37;;;;;;;24.25;19.40;;;24.30;45.40;;;;;;5055102;28;20045;-63
2022/03/25 11:17:07;;;;;;;26.23;17.20;;;24.30;45.20;;;;;;5054921;28;20041;-63
2022/03/25 11:19:37;;;;;;;24.13;17.73;;;24.30;43.90;;;;;;5049954;28;20103;-63
2022/03/25 11:22:04;;;;;;;21.05;17.25;;;24.30;44.60;;;;;;5054980;28;20387;-64
2022/03/25 11:24:36;;;;;;;25.65;19.45;;;24.50;44.30;;;;;;5054624;28;20068;-63
2022/03/25 11:27:27;;;;;;;25.17;20.48;;;24.70;44.40;;;;;;5037980;28;20045;-63
2022/03/25 11:29:56;;;;;;;24.88;19.30;;;24.70;44.60;;;;;;5048966;28;20084;-63
2022/03/25 11:32:23;;;;;;;28.75;20.23;;;24.50;44.50;;;;;;5055922;28;20044;-63
2022/03/25 11:34:55;;;;;;;23.95;19.85;;;24.50;46.00;;;;;;5054515;28;20041;-63
2022/03/25 11:37:29;;;;;;;26.88;19.88;;;24.50;44.40;;;;;;5053779;28;20432;-63
2022/03/25 11:40:14;;;;;;;26.35;18.77;;;24.50;44.50;;;;;;5054663;28;20118;-63
2022/03/25 11:42:51;;;;;;;25.35;19.95;;;24.30;44.90;;;;;;5055717;28;20059;-63
2022/03/25 11:45:32;;;;;;;24.52;20.27;;;24.40;45.60;;;;;;5054230;28;20041;-63
2022/03/25 11:48:03;;;;;;;28.83;21.85;;;24.50;45.20;;;;;;5055790;28;20057;-66
2022/03/25 11:50:28;;;;;;;28.45;21.50;;;24.40;45.60;;;;;;5053174;28;20071;-63
2022/03/25 11:52:54;;;;;;;24.92;21.75;;;24.30;45.90;;;;;;5054342;28;20678;-63
2022/03/25 11:55:20;;;;;;;31.05;22.58;;;24.30;45.70;;;;;;5087565;28;20128;-63
2022/03/25 11:57:46;;;;;;;27.30;21.85;;;24.40;45.80;;;;;;5054347;28;20128;-63
2022/03/25 12:00:28;;;;;;;28.77;20.48;;;24.30;45.90;;;;;;5087422;28;20148;-63
2022/03/25 12:03:04;;;;;;;25.50;20.52;;;24.10;46.00;;;;;;5087699;28;20037;-63
2022/03/25 12:05:30;;;;;;;25.25;20.30;;;23.80;45.40;;;;;;5087287;28;20072;-63
2022/03/25 12:08:39;;;;;;;25.65;21.17;;;23.50;46.70;;;;;;5086128;28;20106;-62
2022/03/25 12:11:11;;;;;;;29.40;20.70;;;23.50;46.00;;;;;;5052646;28;20040;-63
2022/03/25 12:14:03;;;;;;;27.45;20.00;;;23.40;47.30;;;;;;5057830;28;20469;-62
2022/03/25 12:16:47;;;;;;;25.38;20.10;;;23.30;46.80;;;;;;5031604;28;20041;-62
2022/03/25 12:19:28;;;;;;;22.65;18.85;;;23.40;47.10;;;;;;5034410;28;20437;-65
2022/03/25 12:22:19;;;;;;;22.48;17.88;;;23.70;47.00;;;;;;5032693;28;20137;-66
2022/03/25 12:24:53;;;;;;;24.83;19.15;;;23.40;46.80;;;;;;5033835;28;20069;-66
2022/03/25 12:27:20;;;;;;;23.10;16.95;;;23.00;46.90;;;;;;5032855;28;20049;-65
2022/03/25 12:29:48;;;;;;;25.45;17.98;;;22.90;46.50;;;;;;5016382;28;20045;-65
2022/03/25 12:32:16;;;;;;;26.05;16.95;;;22.90;45.70;;;;;;5016667;28;20047;-65
2022/03/25 12:34:58;;;;;;;21.98;16.73;;;22.80;45.70;;;;;;5032539;28;20489;-65